RCSS/TSA METAR and TAF weather

Enter ICAO airport designator
Station Type Date Time Source
RCSS METAR 2019/08/22 19:00 UTC NOAA

RCSS 221900Z 08011KT 9999 FEW025 28/24 Q1006 NOSIG RMK A2972


Station Type Date Time Source
RCSS Decoded METAR 2019/08/22 19:00 UTC NOAA

Station name not available
Aug 22, 2019 - 03:00 PM EDT / 2019.08.22 1900 UTC
Wind: from the E (080 degrees) at 13 MPH (11 KT):0
Visibility: greater than 7 mile(s):0
Sky conditions: mostly clear
Temperature: 82 F (28 C)
Dew Point: 75 F (24 C)
Relative Humidity: 78%
Pressure (altimeter): 29.71 in. Hg (1006 hPa)
ob: RCSS 221900Z 08011KT 9999 FEW025 28/24 Q1006 NOSIG RMK A2972
cycle: 19

Station Type Date Time Source
RCSS TAF 2019/08/22 18:03 UTC NOAA

TAF RCSS 221700Z 2218/2318 09010KT 9999 FEW020
BECMG 2306/2308 10015G25KT FEW015 BKN032
TEMPO 2312/2318 5000 SHRA FEW010 BKN018 BKN030

Example: see airport list